DAOV

Ghriss Airport

Algeria
METAR DAOV 201400Z 36010KT 7000 FEW033 SCT100 38/21 Q1014
Observed Flight Rules
Jul-20 @ 14:00 UTC (30 minutes ago) Marginal Visual Flight Rules
Wind Visibility Clouds
360° at 10 knots 7,001 meters
  • Few at 3,300' AGL
  • Scattered at 10,000' AGL
Temperatures Readings
Current 38°C / 100°F
Dewpoint 21°C / 70°F
Humidity 37%
Altimeter 29.94" Hg
Pressure 1014 hPa
Elevation 514
METAR DAOV 201400Z 36010KT 7000 FEW033 SCT100 38/21 Q1014
Observed Flight Rules
Jul-20 @ 14:00 UTC
(30 minutes ago)
MVFR
Wind Visibility
360° at 10 knots 7,001 meters
Clouds
  • Few at 3,300' AGL
  • Scattered at 10,000' AGL
Temperature Dewpoint
38°C / 100°F 21°C / 70°F
Humidity Altimeter Pressure
37% 29.94" Hg 1014 hPa